sensor_id;sensor_type;location;lat;lon;timestamp;pressure;altitude;pressure_sealevel;temperature;humidity
36242;BME280;22283;42.748;12.732;2024-03-08T00:03:03;98133.25;;;2.28;100.00
36242;BME280;22283;42.748;12.732;2024-03-08T00:08:05;98144.59;;;2.27;100.00
36242;BME280;22283;42.748;12.732;2024-03-08T00:13:05;98142.41;;;2.16;100.00
36242;BME280;22283;42.748;12.732;2024-03-08T00:18:07;98139.34;;;2.05;100.00
36242;BME280;22283;42.748;12.732;2024-03-08T00:23:07;98132.19;;;2.10;100.00
36242;BME280;22283;42.748;12.732;2024-03-08T00:28:07;98123.59;;;2.08;100.00
36242;BME280;22283;42.748;12.732;2024-03-08T00:33:08;98125.28;;;2.09;100.00
36242;BME280;22283;42.748;12.732;2024-03-08T00:38:09;98121.03;;;2.06;100.00
36242;BME280;22283;42.748;12.732;2024-03-08T00:43:09;98120.16;;;2.06;100.00
36242;BME280;22283;42.748;12.732;2024-03-08T00:48:10;98120.41;;;2.00;100.00
36242;BME280;22283;42.748;12.732;2024-03-08T00:53:12;98128.44;;;1.95;100.00
36242;BME280;22283;42.748;12.732;2024-03-08T00:58:13;98129.50;;;1.89;100.00
36242;BME280;22283;42.748;12.732;2024-03-08T01:03:13;98128.47;;;1.93;100.00
36242;BME280;22283;42.748;12.732;2024-03-08T01:08:14;98122.22;;;1.97;100.00
36242;BME280;22283;42.748;12.732;2024-03-08T01:13:14;98119.88;;;1.91;100.00
36242;BME280;22283;42.748;12.732;2024-03-08T01:18:15;98106.72;;;1.94;100.00
36242;BME280;22283;42.748;12.732;2024-03-08T01:23:15;98113.72;;;1.92;100.00
36242;BME280;22283;42.748;12.732;2024-03-08T01:28:16;98093.72;;;1.93;100.00
36242;BME280;22283;42.748;12.732;2024-03-08T01:33:16;98088.19;;;2.01;100.00
36242;BME280;22283;42.748;12.732;2024-03-08T01:38:17;98088.84;;;2.06;100.00
36242;BME280;22283;42.748;12.732;2024-03-08T01:48:18;98080.94;;;2.29;100.00
36242;BME280;22283;42.748;12.732;2024-03-08T01:53:22;98067.41;;;2.41;100.00
36242;BME280;22283;42.748;12.732;2024-03-08T01:58:24;98074.91;;;2.49;100.00
36242;BME280;22283;42.748;12.732;2024-03-08T02:03:26;98067.97;;;2.50;100.00
36242;BME280;22283;42.748;12.732;2024-03-08T02:08:28;98051.25;;;2.54;100.00
36242;BME280;22283;42.748;12.732;2024-03-08T02:13:29;98055.44;;;2.58;100.00
36242;BME280;22283;42.748;12.732;2024-03-08T02:18:30;98051.88;;;2.59;100.00
36242;BME280;22283;42.748;12.732;2024-03-08T02:23:31;98045.94;;;2.55;100.00
36242;BME280;22283;42.748;12.732;2024-03-08T02:28:33;98046.72;;;2.57;100.00
36242;BME280;22283;42.748;12.732;2024-03-08T02:33:34;98051.78;;;2.62;100.00
36242;BME280;22283;42.748;12.732;2024-03-08T02:38:34;98050.72;;;2.66;100.00
36242;BME280;22283;42.748;12.732;2024-03-08T02:43:35;98055.28;;;2.61;100.00
36242;BME280;22283;42.748;12.732;2024-03-08T02:48:35;98053.56;;;2.60;100.00
36242;BME280;22283;42.748;12.732;2024-03-08T02:53:36;98057.00;;;2.62;100.00
36242;BME280;22283;42.748;12.732;2024-03-08T02:58:37;98049.06;;;2.63;100.00
36242;BME280;22283;42.748;12.732;2024-03-08T03:03:37;98051.38;;;2.71;100.00
36242;BME280;22283;42.748;12.732;2024-03-08T03:08:38;98039.06;;;2.73;100.00
36242;BME280;22283;42.748;12.732;2024-03-08T03:13:39;98036.66;;;2.68;100.00
36242;BME280;22283;42.748;12.732;2024-03-08T03:18:40;98038.75;;;2.60;100.00
36242;BME280;22283;42.748;12.732;2024-03-08T03:23:40;98044.81;;;2.61;100.00
36242;BME280;22283;42.748;12.732;2024-03-08T03:28:42;98041.97;;;2.46;100.00
36242;BME280;22283;42.748;12.732;2024-03-08T03:33:43;98052.91;;;2.34;100.00
36242;BME280;22283;42.748;12.732;2024-03-08T03:38:44;98053.97;;;2.30;100.00
36242;BME280;22283;42.748;12.732;2024-03-08T03:43:44;98057.66;;;2.25;100.00
36242;BME280;22283;42.748;12.732;2024-03-08T03:48:45;98056.69;;;2.27;100.00
36242;BME280;22283;42.748;12.732;2024-03-08T03:53:45;98051.19;;;2.33;100.00
36242;BME280;22283;42.748;12.732;2024-03-08T03:58:46;98058.16;;;2.34;100.00
36242;BME280;22283;42.748;12.732;2024-03-08T04:03:46;98059.72;;;2.38;100.00
36242;BME280;22283;42.748;12.732;2024-03-08T04:08:48;98059.50;;;2.43;100.00
36242;BME280;22283;42.748;12.732;2024-03-08T04:13:48;98050.72;;;2.45;100.00
36242;BME280;22283;42.748;12.732;2024-03-08T04:18:48;98048.09;;;2.45;100.00
36242;BME280;22283;42.748;12.732;2024-03-08T04:23:49;98059.44;;;2.44;100.00
36242;BME280;22283;42.748;12.732;2024-03-08T04:28:50;98052.66;;;2.40;100.00
36242;BME280;22283;42.748;12.732;2024-03-08T04:33:50;98054.59;;;2.35;100.00
36242;BME280;22283;42.748;12.732;2024-03-08T04:38:51;98045.84;;;2.36;100.00
36242;BME280;22283;42.748;12.732;2024-03-08T04:43:51;98044.56;;;2.26;100.00
36242;BME280;22283;42.748;12.732;2024-03-08T04:48:52;98050.13;;;2.17;100.00
36242;BME280;22283;42.748;12.732;2024-03-08T04:53:52;98057.41;;;2.09;100.00
36242;BME280;22283;42.748;12.732;2024-03-08T04:58:53;98052.31;;;2.06;100.00
36242;BME280;22283;42.748;12.732;2024-03-08T05:03:54;98052.69;;;1.96;100.00
36242;BME280;22283;42.748;12.732;2024-03-08T05:08:55;98054.69;;;1.90;100.00
36242;BME280;22283;42.748;12.732;2024-03-08T05:13:56;98057.28;;;1.90;100.00
36242;BME280;22283;42.748;12.732;2024-03-08T05:18:59;98054.75;;;1.88;100.00
36242;BME280;22283;42.748;12.732;2024-03-08T05:23:59;98064.56;;;1.82;100.00
36242;BME280;22283;42.748;12.732;2024-03-08T05:29:00;98065.69;;;1.76;100.00
36242;BME280;22283;42.748;12.732;2024-03-08T05:34:00;98078.06;;;1.71;100.00
36242;BME280;22283;42.748;12.732;2024-03-08T05:39:01;98078.06;;;1.71;100.00
36242;BME280;22283;42.748;12.732;2024-03-08T05:44:01;98076.22;;;1.73;100.00
36242;BME280;22283;42.748;12.732;2024-03-08T05:49:06;98079.28;;;1.84;100.00
36242;BME280;22283;42.748;12.732;2024-03-08T05:54:09;98076.06;;;2.00;100.00
36242;BME280;22283;42.748;12.732;2024-03-08T05:59:12;98073.44;;;2.21;100.00
36242;BME280;22283;42.748;12.732;2024-03-08T06:04:13;98074.88;;;2.51;100.00
36242;BME280;22283;42.748;12.732;2024-03-08T06:09:14;98082.72;;;2.91;100.00
36242;BME280;22283;42.748;12.732;2024-03-08T06:14:23;98080.69;;;3.37;100.00
36242;BME280;22283;42.748;12.732;2024-03-08T06:19:23;98074.28;;;3.82;100.00
36242;BME280;22283;42.748;12.732;2024-03-08T06:24:24;98089.06;;;4.19;100.00
36242;BME280;22283;42.748;12.732;2024-03-08T06:29:24;98093.22;;;4.94;100.00
36242;BME280;22283;42.748;12.732;2024-03-08T06:34:24;98102.28;;;5.22;100.00
36242;BME280;22283;42.748;12.732;2024-03-08T06:39:25;98101.34;;;5.40;100.00
36242;BME280;22283;42.748;12.732;2024-03-08T06:44:25;98093.78;;;5.67;100.00
36242;BME280;22283;42.748;12.732;2024-03-08T06:49:26;98100.88;;;5.81;100.00
36242;BME280;22283;42.748;12.732;2024-03-08T06:54:27;98093.16;;;5.96;100.00
36242;BME280;22283;42.748;12.732;2024-03-08T06:59:27;98088.75;;;6.12;100.00
36242;BME280;22283;42.748;12.732;2024-03-08T07:04:28;98100.59;;;6.19;100.00
36242;BME280;22283;42.748;12.732;2024-03-08T07:09:34;98101.13;;;6.26;100.00
36242;BME280;22283;42.748;12.732;2024-03-08T07:14:36;98100.91;;;6.29;100.00
36242;BME280;22283;42.748;12.732;2024-03-08T07:19:40;98106.69;;;6.35;100.00
36242;BME280;22283;42.748;12.732;2024-03-08T07:24:41;98104.41;;;6.29;100.00
36242;BME280;22283;42.748;12.732;2024-03-08T07:30:03;98111.25;;;6.32;100.00
36242;BME280;22283;42.748;12.732;2024-03-08T07:35:04;98115.16;;;6.40;100.00
36242;BME280;22283;42.748;12.732;2024-03-08T07:40:05;98102.94;;;6.39;100.00
36242;BME280;22283;42.748;12.732;2024-03-08T07:45:07;98107.38;;;6.39;100.00
36242;BME280;22283;42.748;12.732;2024-03-08T07:50:11;98109.91;;;6.40;100.00
36242;BME280;22283;42.748;12.732;2024-03-08T07:55:11;98097.13;;;6.34;100.00
36242;BME280;22283;42.748;12.732;2024-03-08T08:00:12;98100.50;;;6.36;100.00
36242;BME280;22283;42.748;12.732;2024-03-08T08:05:17;98094.81;;;6.28;100.00
36242;BME280;22283;42.748;12.732;2024-03-08T08:10:18;98100.94;;;6.13;100.00
36242;BME280;22283;42.748;12.732;2024-03-08T08:15:22;98088.91;;;6.09;100.00
36242;BME280;22283;42.748;12.732;2024-03-08T08:20:23;98095.41;;;6.02;100.00
36242;BME280;22283;42.748;12.732;2024-03-08T08:25:23;98094.84;;;6.12;100.00
36242;BME280;22283;42.748;12.732;2024-03-08T08:30:24;98097.38;;;6.30;100.00
36242;BME280;22283;42.748;12.732;2024-03-08T08:35:25;98099.13;;;6.29;100.00
36242;BME280;22283;42.748;12.732;2024-03-08T08:40:25;98083.34;;;6.45;100.00
36242;BME280;22283;42.748;12.732;2024-03-08T08:45:26;98096.13;;;6.67;100.00
36242;BME280;22283;42.748;12.732;2024-03-08T08:50:27;98089.06;;;6.98;100.00
36242;BME280;22283;42.748;12.732;2024-03-08T08:55:28;98083.28;;;7.35;100.00
36242;BME280;22283;42.748;12.732;2024-03-08T09:00:29;98081.88;;;7.73;100.00
36242;BME280;22283;42.748;12.732;2024-03-08T09:05:31;98076.94;;;7.95;100.00
36242;BME280;22283;42.748;12.732;2024-03-08T09:10:31;98072.53;;;8.37;100.00
36242;BME280;22283;42.748;12.732;2024-03-08T09:15:34;98071.38;;;8.68;100.00
36242;BME280;22283;42.748;12.732;2024-03-08T09:20:34;98061.69;;;8.81;96.60
36242;BME280;22283;42.748;12.732;2024-03-08T09:25:35;98070.94;;;8.74;93.70
36242;BME280;22283;42.748;12.732;2024-03-08T09:30:36;98058.97;;;8.83;94.07
36242;BME280;22283;42.748;12.732;2024-03-08T09:35:37;98061.31;;;9.13;92.62
36242;BME280;22283;42.748;12.732;2024-03-08T09:40:38;98056.97;;;9.38;94.19
36242;BME280;22283;42.748;12.732;2024-03-08T09:45:40;98056.16;;;9.87;93.17
36242;BME280;22283;42.748;12.732;2024-03-08T09:50:42;98054.81;;;10.18;91.72
36242;BME280;22283;42.748;12.732;2024-03-08T09:55:43;98046.53;;;9.98;90.12
36242;BME280;22283;42.748;12.732;2024-03-08T10:00:45;98039.22;;;10.02;90.22
36242;BME280;22283;42.748;12.732;2024-03-08T10:05:46;98032.50;;;10.46;86.67
36242;BME280;22283;42.748;12.732;2024-03-08T10:10:47;98040.63;;;10.67;83.31
36242;BME280;22283;42.748;12.732;2024-03-08T10:15:47;98029.03;;;10.92;79.89
36242;BME280;22283;42.748;12.732;2024-03-08T10:21:05;98027.34;;;10.91;83.68
36242;BME280;22283;42.748;12.732;2024-03-08T10:26:15;98018.00;;;11.20;78.47
36242;BME280;22283;42.748;12.732;2024-03-08T10:31:16;98018.75;;;11.33;81.46
36242;BME280;22283;42.748;12.732;2024-03-08T10:36:17;98020.44;;;11.46;82.46
36242;BME280;22283;42.748;12.732;2024-03-08T10:41:22;98020.31;;;11.58;80.59
36242;BME280;22283;42.748;12.732;2024-03-08T10:51:25;98008.28;;;11.88;79.32
36242;BME280;22283;42.748;12.732;2024-03-08T10:56:27;98007.22;;;12.23;77.16
36242;BME280;22283;42.748;12.732;2024-03-08T11:01:28;98005.13;;;12.38;76.77
36242;BME280;22283;42.748;12.732;2024-03-08T11:06:41;98001.84;;;12.45;73.69
36242;BME280;22283;42.748;12.732;2024-03-08T11:11:43;97993.63;;;12.69;71.99
36242;BME280;22283;42.748;12.732;2024-03-08T11:16:44;97989.34;;;12.57;68.44
36242;BME280;22283;42.748;12.732;2024-03-08T11:21:45;97975.25;;;12.77;65.37
36242;BME280;22283;42.748;12.732;2024-03-08T11:26:46;97971.81;;;12.87;61.38
36242;BME280;22283;42.748;12.732;2024-03-08T11:31:47;97963.69;;;13.09;61.68
36242;BME280;22283;42.748;12.732;2024-03-08T11:36:48;97949.03;;;13.36;60.09
36242;BME280;22283;42.748;12.732;2024-03-08T11:41:49;97943.53;;;13.58;56.45
36242;BME280;22283;42.748;12.732;2024-03-08T11:46:49;97933.50;;;13.91;50.35
36242;BME280;22283;42.748;12.732;2024-03-08T11:51:53;97927.66;;;14.16;52.47
36242;BME280;22283;42.748;12.732;2024-03-08T11:56:54;97913.78;;;14.32;49.15
36242;BME280;22283;42.748;12.732;2024-03-08T12:02:05;97919.53;;;14.47;47.23
36242;BME280;22283;42.748;12.732;2024-03-08T12:07:09;97910.31;;;14.51;48.49
36242;BME280;22283;42.748;12.732;2024-03-08T12:12:10;97901.16;;;14.63;49.53
36242;BME280;22283;42.748;12.732;2024-03-08T12:17:12;97901.75;;;14.18;47.92
36242;BME280;22283;42.748;12.732;2024-03-08T12:22:14;97896.28;;;14.20;47.86
36242;BME280;22283;42.748;12.732;2024-03-08T12:27:19;97887.03;;;14.53;47.51
36242;BME280;22283;42.748;12.732;2024-03-08T12:32:20;97885.75;;;14.47;52.98
36242;BME280;22283;42.748;12.732;2024-03-08T12:37:23;97880.47;;;14.38;52.81
36242;BME280;22283;42.748;12.732;2024-03-08T12:42:24;97873.44;;;14.66;53.43
36242;BME280;22283;42.748;12.732;2024-03-08T12:47:25;97876.47;;;14.71;51.89
36242;BME280;22283;42.748;12.732;2024-03-08T12:52:28;97867.25;;;14.65;52.23
36242;BME280;22283;42.748;12.732;2024-03-08T12:57:30;97864.00;;;14.71;52.52
36242;BME280;22283;42.748;12.732;2024-03-08T13:02:31;97855.94;;;14.54;51.14
36242;BME280;22283;42.748;12.732;2024-03-08T13:07:32;97849.69;;;14.72;51.55
36242;BME280;22283;42.748;12.732;2024-03-08T13:12:33;97847.53;;;14.58;50.64
36242;BME280;22283;42.748;12.732;2024-03-08T13:17:38;97830.38;;;14.70;50.92
36242;BME280;22283;42.748;12.732;2024-03-08T13:22:40;97823.94;;;14.63;51.98
36242;BME280;22283;42.748;12.732;2024-03-08T13:27:41;97822.44;;;14.88;50.38
36242;BME280;22283;42.748;12.732;2024-03-08T13:32:45;97804.72;;;15.07;50.18
36242;BME280;22283;42.748;12.732;2024-03-08T13:37:46;97807.00;;;14.92;49.79
36242;BME280;22283;42.748;12.732;2024-03-08T13:42:48;97796.13;;;14.85;49.07
36242;BME280;22283;42.748;12.732;2024-03-08T13:47:53;97790.09;;;14.83;48.88
36242;BME280;22283;42.748;12.732;2024-03-08T13:52:54;97782.19;;;15.01;49.47
36242;BME280;22283;42.748;12.732;2024-03-08T13:57:54;97778.72;;;14.91;49.81
36242;BME280;22283;42.748;12.732;2024-03-08T14:02:57;97770.91;;;14.80;50.33
36242;BME280;22283;42.748;12.732;2024-03-08T14:07:57;97771.66;;;14.72;50.21
36242;BME280;22283;42.748;12.732;2024-03-08T14:13:01;97768.75;;;14.65;49.42
36242;BME280;22283;42.748;12.732;2024-03-08T14:18:04;97774.13;;;14.83;50.28
36242;BME280;22283;42.748;12.732;2024-03-08T14:23:07;97765.50;;;14.99;49.12
36242;BME280;22283;42.748;12.732;2024-03-08T14:28:08;97760.63;;;15.12;48.19
36242;BME280;22283;42.748;12.732;2024-03-08T14:33:10;97752.69;;;15.30;48.61
36242;BME280;22283;42.748;12.732;2024-03-08T14:38:11;97745.16;;;15.61;50.15
36242;BME280;22283;42.748;12.732;2024-03-08T14:43:13;97745.59;;;15.39;48.13
36242;BME280;22283;42.748;12.732;2024-03-08T14:48:16;97736.66;;;15.48;48.38
36242;BME280;22283;42.748;12.732;2024-03-08T14:53:17;97734.72;;;15.50;49.24
36242;BME280;22283;42.748;12.732;2024-03-08T14:58:18;97738.50;;;15.30;49.25
36242;BME280;22283;42.748;12.732;2024-03-08T15:03:21;97729.03;;;14.99;48.71
36242;BME280;22283;42.748;12.732;2024-03-08T15:08:25;97738.91;;;14.89;49.92
36242;BME280;22283;42.748;12.732;2024-03-08T15:13:27;97737.13;;;14.80;50.32
36242;BME280;22283;42.748;12.732;2024-03-08T15:18:35;97746.72;;;14.73;50.78
36242;BME280;22283;42.748;12.732;2024-03-08T15:23:36;97753.75;;;14.64;50.93
36242;BME280;22283;42.748;12.732;2024-03-08T15:28:37;97768.06;;;14.44;51.98
36242;BME280;22283;42.748;12.732;2024-03-08T15:33:39;97773.56;;;14.33;54.45
36242;BME280;22283;42.748;12.732;2024-03-08T15:38:51;97773.38;;;13.97;54.15
36242;BME280;22283;42.748;12.732;2024-03-08T15:43:52;97784.03;;;13.68;55.03
36242;BME280;22283;42.748;12.732;2024-03-08T15:48:53;97787.91;;;13.25;55.13
36242;BME280;22283;42.748;12.732;2024-03-08T15:53:53;97798.44;;;13.05;55.72
36242;BME280;22283;42.748;12.732;2024-03-08T15:58:55;97805.41;;;12.97;56.85
36242;BME280;22283;42.748;12.732;2024-03-08T16:03:56;97797.56;;;12.86;56.93
36242;BME280;22283;42.748;12.732;2024-03-08T16:08:58;97811.50;;;12.78;55.79
36242;BME280;22283;42.748;12.732;2024-03-08T16:13:59;97799.72;;;12.71;55.27
36242;BME280;22283;42.748;12.732;2024-03-08T16:19:01;97794.56;;;12.69;55.01
36242;BME280;22283;42.748;12.732;2024-03-08T16:24:05;97800.69;;;12.60;54.93
36242;BME280;22283;42.748;12.732;2024-03-08T16:29:06;97794.66;;;12.58;55.21
36242;BME280;22283;42.748;12.732;2024-03-08T16:34:07;97791.25;;;12.46;55.75
36242;BME280;22283;42.748;12.732;2024-03-08T16:39:08;97794.84;;;12.36;55.86
36242;BME280;22283;42.748;12.732;2024-03-08T16:44:09;97811.66;;;12.25;56.45
36242;BME280;22283;42.748;12.732;2024-03-08T16:49:10;97799.31;;;12.14;57.12
36242;BME280;22283;42.748;12.732;2024-03-08T16:54:11;97798.53;;;12.02;57.29
36242;BME280;22283;42.748;12.732;2024-03-08T16:59:12;97808.25;;;11.92;58.13
36242;BME280;22283;42.748;12.732;2024-03-08T17:04:12;97805.94;;;11.88;60.27
36242;BME280;22283;42.748;12.732;2024-03-08T17:09:13;97798.28;;;11.73;62.90
36242;BME280;22283;42.748;12.732;2024-03-08T17:14:14;97810.50;;;11.65;64.76
36242;BME280;22283;42.748;12.732;2024-03-08T17:19:14;97817.13;;;11.59;69.42
36242;BME280;22283;42.748;12.732;2024-03-08T17:24:15;97818.88;;;11.49;74.98
36242;BME280;22283;42.748;12.732;2024-03-08T17:29:17;97812.75;;;11.37;80.70
36242;BME280;22283;42.748;12.732;2024-03-08T17:34:18;97819.28;;;11.22;83.81
36242;BME280;22283;42.748;12.732;2024-03-08T17:39:19;97817.75;;;11.08;86.20
36242;BME280;22283;42.748;12.732;2024-03-08T17:44:20;97817.78;;;10.97;87.58
36242;BME280;22283;42.748;12.732;2024-03-08T17:49:23;97821.03;;;10.89;89.48
36242;BME280;22283;42.748;12.732;2024-03-08T17:54:29;97835.56;;;10.83;91.14
36242;BME280;22283;42.748;12.732;2024-03-08T17:59:30;97833.44;;;10.77;92.43
36242;BME280;22283;42.748;12.732;2024-03-08T18:04:33;97824.06;;;10.73;93.55
36242;BME280;22283;42.748;12.732;2024-03-08T18:09:34;97812.03;;;10.69;93.71
36242;BME280;22283;42.748;12.732;2024-03-08T18:14:35;97778.56;;;10.68;94.16
36242;BME280;22283;42.748;12.732;2024-03-08T18:19:37;97777.97;;;10.65;93.57
36242;BME280;22283;42.748;12.732;2024-03-08T18:24:38;97774.72;;;10.61;94.65
36242;BME280;22283;42.748;12.732;2024-03-08T18:29:41;97756.56;;;10.68;93.45
36242;BME280;22283;42.748;12.732;2024-03-08T18:34:42;97757.28;;;10.81;90.10
36242;BME280;22283;42.748;12.732;2024-03-08T18:39:44;97758.38;;;10.78;89.34
36242;BME280;22283;42.748;12.732;2024-03-08T18:44:46;97743.34;;;10.56;93.23
36242;BME280;22283;42.748;12.732;2024-03-08T18:49:47;97749.59;;;10.33;97.02
36242;BME280;22283;42.748;12.732;2024-03-08T18:54:47;97747.03;;;10.20;99.06
36242;BME280;22283;42.748;12.732;2024-03-08T18:59:48;97751.47;;;10.08;100.00
36242;BME280;22283;42.748;12.732;2024-03-08T19:04:50;97751.44;;;9.97;100.00
36242;BME280;22283;42.748;12.732;2024-03-08T19:09:55;97754.59;;;9.91;100.00
36242;BME280;22283;42.748;12.732;2024-03-08T19:14:58;97753.22;;;9.85;100.00
36242;BME280;22283;42.748;12.732;2024-03-08T19:19:59;97765.72;;;9.83;100.00
36242;BME280;22283;42.748;12.732;2024-03-08T19:25:00;97763.22;;;9.82;100.00
36242;BME280;22283;42.748;12.732;2024-03-08T19:30:04;97746.75;;;9.78;100.00
36242;BME280;22283;42.748;12.732;2024-03-08T19:35:06;97759.44;;;9.73;100.00
36242;BME280;22283;42.748;12.732;2024-03-08T19:40:14;97759.44;;;9.73;100.00
36242;BME280;22283;42.748;12.732;2024-03-08T19:45:20;97760.53;;;9.71;100.00
36242;BME280;22283;42.748;12.732;2024-03-08T19:50:20;97767.63;;;9.70;100.00
36242;BME280;22283;42.748;12.732;2024-03-08T19:55:21;97766.44;;;9.74;100.00
36242;BME280;22283;42.748;12.732;2024-03-08T20:00:22;97765.25;;;9.78;100.00
36242;BME280;22283;42.748;12.732;2024-03-08T20:05:28;97754.94;;;9.87;99.97
36242;BME280;22283;42.748;12.732;2024-03-08T20:10:31;97741.50;;;10.01;97.56
36242;BME280;22283;42.748;12.732;2024-03-08T20:15:32;97742.47;;;10.00;97.03
36242;BME280;22283;42.748;12.732;2024-03-08T20:20:34;97732.84;;;9.99;96.67
36242;BME280;22283;42.748;12.732;2024-03-08T20:25:35;97731.31;;;10.07;95.06
36242;BME280;22283;42.748;12.732;2024-03-08T20:30:37;97740.06;;;10.08;94.99
36242;BME280;22283;42.748;12.732;2024-03-08T20:35:38;97743.06;;;10.03;96.43
36242;BME280;22283;42.748;12.732;2024-03-08T20:40:41;97708.22;;;9.98;97.78
36242;BME280;22283;42.748;12.732;2024-03-08T20:45:44;97704.25;;;10.04;98.17
36242;BME280;22283;42.748;12.732;2024-03-08T20:50:45;97715.78;;;9.92;100.00
36242;BME280;22283;42.748;12.732;2024-03-08T20:55:45;97702.69;;;9.90;100.00
36242;BME280;22283;42.748;12.732;2024-03-08T21:00:48;97703.97;;;9.73;100.00
36242;BME280;22283;42.748;12.732;2024-03-08T21:05:53;97706.13;;;9.68;100.00
36242;BME280;22283;42.748;12.732;2024-03-08T21:10:55;97703.72;;;9.65;100.00
36242;BME280;22283;42.748;12.732;2024-03-08T21:15:56;97701.56;;;9.59;100.00
36242;BME280;22283;42.748;12.732;2024-03-08T21:20:58;97703.94;;;9.62;100.00
36242;BME280;22283;42.748;12.732;2024-03-08T21:25:58;97708.16;;;9.65;100.00
36242;BME280;22283;42.748;12.732;2024-03-08T21:31:01;97725.25;;;9.83;100.00
36242;BME280;22283;42.748;12.732;2024-03-08T21:36:02;97726.31;;;9.80;100.00
36242;BME280;22283;42.748;12.732;2024-03-08T21:41:03;97710.97;;;9.85;100.00
36242;BME280;22283;42.748;12.732;2024-03-08T21:46:08;97718.88;;;9.85;100.00
36242;BME280;22283;42.748;12.732;2024-03-08T21:51:09;97719.38;;;9.79;100.00
36242;BME280;22283;42.748;12.732;2024-03-08T21:56:10;97711.44;;;9.79;100.00
36242;BME280;22283;42.748;12.732;2024-03-08T22:01:11;97711.44;;;9.79;100.00
36242;BME280;22283;42.748;12.732;2024-03-08T22:06:11;97728.00;;;9.70;100.00
36242;BME280;22283;42.748;12.732;2024-03-08T22:11:12;97717.75;;;9.66;100.00
36242;BME280;22283;42.748;12.732;2024-03-08T22:16:13;97711.03;;;9.50;100.00
36242;BME280;22283;42.748;12.732;2024-03-08T22:21:13;97702.50;;;9.47;100.00
36242;BME280;22283;42.748;12.732;2024-03-08T22:26:14;97692.72;;;9.36;100.00
36242;BME280;22283;42.748;12.732;2024-03-08T22:31:18;97695.19;;;9.26;100.00
36242;BME280;22283;42.748;12.732;2024-03-08T22:36:19;97691.09;;;9.22;100.00
36242;BME280;22283;42.748;12.732;2024-03-08T22:41:21;97697.81;;;9.15;100.00
36242;BME280;22283;42.748;12.732;2024-03-08T22:46:26;97677.91;;;9.11;100.00
36242;BME280;22283;42.748;12.732;2024-03-08T22:51:28;97673.53;;;9.10;100.00
36242;BME280;22283;42.748;12.732;2024-03-08T22:56:29;97684.22;;;9.08;100.00
36242;BME280;22283;42.748;12.732;2024-03-08T23:01:33;97685.63;;;9.01;100.00
36242;BME280;22283;42.748;12.732;2024-03-08T23:06:35;97675.69;;;9.05;100.00
36242;BME280;22283;42.748;12.732;2024-03-08T23:11:37;97670.69;;;9.13;100.00
36242;BME280;22283;42.748;12.732;2024-03-08T23:16:38;97659.28;;;9.13;100.00
36242;BME280;22283;42.748;12.732;2024-03-08T23:21:39;97647.28;;;9.08;100.00
36242;BME280;22283;42.748;12.732;2024-03-08T23:26:39;97642.63;;;9.12;100.00
36242;BME280;22283;42.748;12.732;2024-03-08T23:31:45;97639.25;;;9.10;100.00
36242;BME280;22283;42.748;12.732;2024-03-08T23:36:46;97643.81;;;9.08;100.00
36242;BME280;22283;42.748;12.732;2024-03-08T23:41:49;97655.78;;;9.01;100.00
36242;BME280;22283;42.748;12.732;2024-03-08T23:46:50;97663.19;;;8.96;100.00
36242;BME280;22283;42.748;12.732;2024-03-08T23:51:51;97677.31;;;8.95;100.00
36242;BME280;22283;42.748;12.732;2024-03-08T23:56:54;97656.22;;;8.95;100.00
